createdAt,value
2022-08-18T00:02:30.181Z,97660.50
2022-08-18T00:05:04.244Z,97667.81
2022-08-18T00:07:33.845Z,97677.03
2022-08-18T00:10:07.270Z,97675.94
2022-08-18T00:12:45.051Z,97670.28
2022-08-18T00:15:20.265Z,97666.50
2022-08-18T00:17:47.325Z,97663.19
2022-08-18T00:20:15.922Z,97658.38
2022-08-18T00:22:49.377Z,97662.69
2022-08-18T00:25:16.863Z,97664.28
2022-08-18T00:27:50.261Z,97657.22
2022-08-18T00:30:20.168Z,97661.03
2022-08-18T00:33:01.239Z,97659.94
2022-08-18T00:35:29.916Z,97655.06
2022-08-18T00:38:04.436Z,97662.63
2022-08-18T00:40:37.693Z,97664.00
2022-08-18T00:43:12.242Z,97661.59
2022-08-18T00:45:40.589Z,97658.31
2022-08-18T00:48:14.259Z,97665.91
2022-08-18T00:50:50.124Z,97668.06
2022-08-18T00:53:34.296Z,97665.34
2022-08-18T00:56:11.540Z,97670.78
2022-08-18T00:58:42.963Z,97668.06
2022-08-18T01:01:18.293Z,97671.28
2022-08-18T01:03:45.787Z,97675.88
2022-08-18T01:06:24.248Z,97677.19
2022-08-18T01:08:50.826Z,97673.94
2022-08-18T01:11:24.232Z,97668.25
2022-08-18T01:13:58.174Z,97671.72
2022-08-18T01:16:57.173Z,97672.22
2022-08-18T01:19:50.251Z,97672.44
2022-08-18T01:22:40.065Z,97677.47
2022-08-18T01:25:32.297Z,97663.38
2022-08-18T01:28:02.327Z,97674.13
2022-08-18T01:30:36.224Z,97676.53
2022-08-18T01:33:02.827Z,97681.66
2022-08-18T01:35:38.269Z,97683.78
2022-08-18T01:38:15.256Z,97684.84
2022-08-18T01:41:23.661Z,97681.25
2022-08-18T01:43:37.095Z,97680.63
2022-08-18T01:46:11.272Z,97685.72
2022-08-18T01:48:38.569Z,97683.03
2022-08-18T01:51:16.246Z,97687.56
2022-08-18T01:53:49.244Z,97685.13
2022-08-18T01:56:17.795Z,97685.63
2022-08-18T01:58:46.143Z,97686.13
2022-08-18T02:01:20.282Z,97684.50
2022-08-18T02:03:49.453Z,97697.22
2022-08-18T02:06:18.712Z,97697.47
2022-08-18T02:09:14.246Z,97692.00
2022-08-18T02:12:12.244Z,97692.00
2022-08-18T02:14:39.011Z,97689.72
2022-08-18T02:17:14.242Z,97702.13
2022-08-18T02:19:43.153Z,97709.72
2022-08-18T02:22:18.228Z,97707.31
2022-08-18T02:24:45.332Z,97712.84
2022-08-18T02:27:19.235Z,97720.44
2022-08-18T02:29:45.859Z,97727.84
2022-08-18T02:32:19.260Z,97740.97
2022-08-18T02:34:45.849Z,97754.38
2022-08-18T02:37:19.252Z,97751.56
2022-08-18T02:39:45.928Z,97742.69
2022-08-18T02:42:14.578Z,97754.06
2022-08-18T02:44:47.236Z,97750.47
2022-08-18T02:47:14.967Z,97749.81
2022-08-18T02:49:41.779Z,97754.75
2022-08-18T02:52:15.258Z,97748.94
2022-08-18T02:54:41.768Z,97741.69
2022-08-18T02:57:16.237Z,97737.28
2022-08-18T02:59:42.845Z,97746.84
2022-08-18T03:02:21.252Z,97741.81
2022-08-18T03:04:54.228Z,97745.63
2022-08-18T03:07:20.857Z,97747.81
2022-08-18T03:09:54.228Z,97748.22
2022-08-18T03:12:27.518Z,97757.72
2022-08-18T03:15:00.214Z,97761.91
2022-08-18T03:17:26.782Z,97758.19
2022-08-18T03:20:00.229Z,97772.94
2022-08-18T03:22:29.673Z,97772.84
2022-08-18T03:25:05.264Z,97773.25
2022-08-18T03:27:31.773Z,97775.28
2022-08-18T03:30:05.237Z,97780.69
2022-08-18T03:32:37.755Z,97796.28
2022-08-18T03:35:11.261Z,97796.00
2022-08-18T03:37:44.966Z,97799.22
2022-08-18T03:40:18.344Z,97804.63
2022-08-18T03:42:51.231Z,97802.78
2022-08-18T03:45:24.222Z,97817.50
2022-08-18T03:47:53.593Z,97828.47
2022-08-18T03:50:28.226Z,97832.22
2022-08-18T03:52:59.355Z,97831.50
2022-08-18T03:55:36.255Z,97837.59
2022-08-18T03:58:03.471Z,97827.16
2022-08-18T04:00:31.232Z,97825.63
2022-08-18T04:03:06.216Z,97831.41
2022-08-18T04:05:34.502Z,97839.88
2022-08-18T04:08:09.309Z,97843.72
2022-08-18T04:10:42.378Z,97841.50
2022-08-18T04:13:22.381Z,97841.03
2022-08-18T04:15:55.405Z,97841.63
2022-08-18T04:18:28.220Z,97848.63
2022-08-18T04:21:01.223Z,97852.28
2022-08-18T04:23:27.879Z,97852.56
2022-08-18T04:26:04.368Z,97866.16
2022-08-18T04:28:31.270Z,97875.31
2022-08-18T04:31:06.201Z,97872.75
2022-08-18T04:33:43.380Z,97873.00
2022-08-18T04:36:20.881Z,97868.75
2022-08-18T04:38:47.581Z,97870.28
2022-08-18T04:41:21.291Z,97878.03
2022-08-18T04:43:49.810Z,97875.09
2022-08-18T04:46:24.214Z,97882.38
2022-08-18T04:48:52.288Z,97887.06
2022-08-18T04:52:37.604Z,97893.84
2022-08-18T04:54:13.801Z,97896.66
2022-08-18T04:56:47.214Z,97903.22
2022-08-18T04:59:14.349Z,97901.81
2022-08-18T05:01:54.234Z,97897.13
2022-08-18T05:04:20.851Z,97897.50
2022-08-18T05:06:54.234Z,97907.44
2022-08-18T05:09:22.720Z,97894.66
2022-08-18T05:12:04.201Z,97881.38
2022-08-18T05:14:37.502Z,97874.47
2022-08-18T05:17:11.202Z,97874.09
2022-08-18T05:19:44.595Z,97880.44
2022-08-18T05:22:28.353Z,97887.00
2022-08-18T05:25:04.242Z,97875.50
2022-08-18T05:27:39.204Z,97876.56
2022-08-18T05:30:07.442Z,97882.97
2022-08-18T05:32:48.680Z,97882.59
2022-08-18T05:35:22.222Z,97886.47
2022-08-18T05:37:58.359Z,97901.59
2022-08-18T05:40:32.204Z,97889.72
2022-08-18T05:42:59.959Z,97901.59
2022-08-18T05:45:27.027Z,97894.16
2022-08-18T05:48:05.380Z,97903.66
2022-08-18T05:50:34.143Z,97898.94
2022-08-18T05:53:16.295Z,97905.16
2022-08-18T05:56:18.129Z,97906.34
2022-08-18T05:58:55.225Z,97910.59
2022-08-18T06:01:32.940Z,97927.63
2022-08-18T06:04:15.185Z,97938.28
2022-08-18T06:06:49.213Z,97954.72
2022-08-18T06:09:38.376Z,97954.66
2022-08-18T06:12:19.309Z,97961.19
2022-08-18T06:14:53.188Z,97987.41
2022-08-18T06:17:38.230Z,97985.28
2022-08-18T06:20:20.961Z,97982.34
2022-08-18T06:23:03.192Z,97995.53
2022-08-18T06:26:15.229Z,97990.81
2022-08-18T06:28:48.891Z,97999.84
2022-08-18T06:31:36.207Z,97994.91
2022-08-18T06:34:21.135Z,97995.81
2022-08-18T06:37:07.279Z,97998.63
2022-08-18T06:39:48.702Z,98006.50
2022-08-18T06:42:24.372Z,98000.97
2022-08-18T06:44:59.265Z,98001.69
2022-08-18T06:47:40.960Z,98003.56
2022-08-18T06:50:34.381Z,98006.00
2022-08-18T06:53:04.001Z,97992.47
2022-08-18T06:55:40.349Z,97990.34
2022-08-18T06:58:29.182Z,97992.31
2022-08-18T07:01:05.461Z,97989.81
2022-08-18T07:03:42.387Z,97981.06
2022-08-18T07:06:11.723Z,97988.63
2022-08-18T07:08:47.173Z,97996.50
2022-08-18T07:11:35.243Z,97987.88
2022-08-18T07:14:28.710Z,97990.91
2022-08-18T07:17:17.192Z,97986.81
2022-08-18T07:19:43.988Z,97992.41
2022-08-18T07:22:21.578Z,97994.06
2022-08-18T07:25:05.850Z,97988.91
2022-08-18T07:27:48.227Z,97985.00
2022-08-18T07:30:27.655Z,97984.66
2022-08-18T07:33:01.178Z,98008.97
2022-08-18T07:35:33.943Z,98015.22
2022-08-18T07:38:39.013Z,97997.50
2022-08-18T07:41:08.187Z,97999.13
2022-08-18T07:43:41.873Z,98004.53
2022-08-18T07:46:20.191Z,97991.09
2022-08-18T07:48:46.987Z,97988.50
2022-08-18T07:51:20.257Z,97993.00
2022-08-18T07:53:54.524Z,97989.63
2022-08-18T07:56:39.215Z,97974.59
2022-08-18T07:59:19.067Z,97960.00
2022-08-18T08:01:56.410Z,97951.97
2022-08-18T08:04:38.457Z,97939.88
2022-08-18T08:07:25.569Z,97927.31
2022-08-18T08:10:02.237Z,97906.47
2022-08-18T08:12:51.176Z,97872.97
2022-08-18T08:15:27.440Z,97839.94
2022-08-18T08:18:07.161Z,97831.88
2022-08-18T08:20:46.224Z,97832.16
2022-08-18T08:23:18.757Z,97844.84
2022-08-18T08:25:55.182Z,97852.41
2022-08-18T08:28:28.042Z,97868.78
2022-08-18T08:31:37.410Z,97888.97
2022-08-18T08:34:24.611Z,97903.31
2022-08-18T08:37:00.171Z,97911.16
2022-08-18T08:39:34.169Z,97904.34
2022-08-18T08:42:30.799Z,97896.88
2022-08-18T08:45:01.116Z,97896.63
2022-08-18T08:47:47.178Z,97894.47
2022-08-18T08:50:19.572Z,97889.22
2022-08-18T08:52:57.593Z,97871.28
2022-08-18T08:55:25.639Z,97858.16
2022-08-18T08:58:03.171Z,97847.97
2022-08-18T09:00:30.297Z,97853.16
2022-08-18T09:03:08.200Z,97846.97
2022-08-18T09:05:40.126Z,97852.72
2022-08-18T09:08:20.195Z,97848.69
2022-08-18T09:11:30.176Z,97851.50
2022-08-18T09:14:03.287Z,97845.00
2022-08-18T09:16:59.332Z,97846.38
2022-08-18T09:19:26.234Z,97839.38
2022-08-18T09:22:23.204Z,97829.06
2022-08-18T09:25:01.199Z,97820.44
2022-08-18T09:28:07.375Z,97809.94
2022-08-18T09:30:43.689Z,97815.66
2022-08-18T09:33:26.188Z,97807.53
2022-08-18T09:36:11.820Z,97802.66
2022-08-18T09:39:12.168Z,97802.41
2022-08-18T09:41:52.281Z,97802.44
2022-08-18T09:44:49.301Z,97806.81
2022-08-18T09:47:22.307Z,97798.66
2022-08-18T09:49:57.241Z,97792.19
2022-08-18T09:52:26.318Z,97777.78
2022-08-18T09:55:05.186Z,97774.25
2022-08-18T10:00:36.389Z,97763.63
2022-08-18T10:03:11.884Z,97769.88
2022-08-18T10:05:45.312Z,97771.25
2022-08-18T10:08:21.196Z,97778.34
2022-08-18T10:11:20.424Z,97782.94
2022-08-18T10:14:12.327Z,97781.56
2022-08-18T10:17:24.677Z,97780.44
2022-08-18T10:20:01.176Z,97787.22
2022-08-18T10:22:45.178Z,97783.41
2022-08-18T10:25:22.835Z,97778.47
2022-08-18T10:28:02.169Z,97786.09
2022-08-18T10:30:30.443Z,97780.59
2022-08-18T10:33:17.967Z,97769.72
2022-08-18T10:36:03.317Z,97775.97
2022-08-18T10:38:49.169Z,97783.59
2022-08-18T10:41:22.614Z,97800.69
2022-08-18T10:43:57.282Z,97791.34
2022-08-18T10:49:29.567Z,97783.88
2022-08-18T10:52:16.304Z,97780.00
2022-08-18T10:55:01.164Z,97783.59
2022-08-18T10:57:43.201Z,97787.13
2022-08-18T11:00:26.215Z,97790.38
2022-08-18T11:03:50.481Z,97787.00
2022-08-18T11:06:06.910Z,97779.59
2022-08-18T11:08:55.130Z,97777.28
2022-08-18T11:11:39.433Z,97779.91
2022-08-18T11:14:29.187Z,97762.38
2022-08-18T11:17:21.207Z,97774.38
2022-08-18T11:19:50.650Z,97770.28
2022-08-18T11:22:35.683Z,97768.88
2022-08-18T11:25:03.827Z,97763.38
2022-08-18T11:27:44.153Z,97769.34
2022-08-18T11:30:12.279Z,97771.97
2022-08-18T11:32:52.124Z,97759.59
2022-08-18T11:35:28.209Z,97748.84
2022-08-18T11:37:58.273Z,97753.16
2022-08-18T11:46:31.819Z,97758.38
2022-08-18T11:49:07.329Z,97755.50
2022-08-18T11:51:43.175Z,97746.94
2022-08-18T11:54:12.815Z,97749.66
2022-08-18T11:56:46.170Z,97738.03
2022-08-18T12:02:18.636Z,97737.47
2022-08-18T12:04:56.899Z,97731.13
2022-08-18T12:07:32.359Z,97721.03
2022-08-18T12:10:26.413Z,97716.41
2022-08-18T12:13:02.902Z,97710.84
2022-08-18T12:15:45.002Z,97694.88
2022-08-18T12:18:28.702Z,97671.47
2022-08-18T12:21:06.184Z,97660.78
2022-08-18T12:23:44.414Z,97658.59
2022-08-18T12:26:43.285Z,97660.88
2022-08-18T12:29:21.181Z,97673.91
2022-08-18T12:31:59.174Z,97679.22
2022-08-18T12:34:27.331Z,97681.28
2022-08-18T12:37:02.167Z,97683.56
2022-08-18T12:39:37.920Z,97681.47
2022-08-18T12:42:11.175Z,97684.78
2022-08-18T12:44:38.387Z,97683.00
2022-08-18T12:47:34.151Z,97664.31
2022-08-18T12:50:14.177Z,97666.97
2022-08-18T12:52:47.403Z,97650.84
2022-08-18T12:55:21.803Z,97632.44
2022-08-18T12:57:56.178Z,97623.88
2022-08-18T13:00:29.526Z,97625.91
2022-08-18T13:02:57.334Z,97625.84
2022-08-18T13:05:31.166Z,97634.66
2022-08-18T13:07:58.681Z,97647.84
2022-08-18T13:10:43.245Z,97655.03
2022-08-18T13:13:30.122Z,97650.16
2022-08-18T13:15:58.519Z,97654.53
2022-08-18T13:18:34.164Z,97657.66
2022-08-18T13:21:03.582Z,97655.72
2022-08-18T13:23:37.208Z,97644.06
2022-08-18T13:26:05.193Z,97646.19
2022-08-18T13:28:56.562Z,97646.31
2022-08-18T13:31:25.412Z,97646.78
2022-08-18T13:33:59.949Z,97636.44
2022-08-18T13:36:46.103Z,97635.75
2022-08-18T13:39:22.153Z,97629.38
2022-08-18T13:41:51.574Z,97624.38
2022-08-18T13:44:27.201Z,97622.19
2022-08-18T13:46:56.052Z,97618.91
2022-08-18T13:49:31.181Z,97621.97
2022-08-18T13:52:00.973Z,97630.50
2022-08-18T13:54:40.181Z,97641.63
2022-08-18T13:57:07.217Z,97653.13
2022-08-18T13:59:46.535Z,97654.25
2022-08-18T14:02:13.575Z,97650.69
2022-08-18T14:04:47.149Z,97653.81
2022-08-18T14:07:18.242Z,97661.47
2022-08-18T14:09:52.248Z,97667.53
2022-08-18T14:12:33.111Z,97682.31
2022-08-18T14:15:06.316Z,97669.31
2022-08-18T14:17:33.824Z,97677.31
2022-08-18T14:20:27.730Z,97673.31
2022-08-18T14:23:13.986Z,97680.78
2022-08-18T14:26:13.221Z,97683.38
2022-08-18T14:28:47.716Z,97674.31
2022-08-18T14:31:23.118Z,97673.28
2022-08-18T14:33:52.529Z,97681.22
2022-08-18T14:36:29.941Z,97696.88
2022-08-18T14:39:04.229Z,97693.06
2022-08-18T14:41:31.586Z,97693.41
2022-08-18T14:44:12.966Z,97702.59
2022-08-18T14:46:52.095Z,97704.81
2022-08-18T14:49:29.132Z,97684.75
2022-08-18T14:52:04.148Z,97666.84
2022-08-18T14:54:37.836Z,97675.81
2022-08-18T14:59:46.724Z,97658.69
2022-08-18T15:02:20.155Z,97604.41
2022-08-18T15:04:52.916Z,97540.34
2022-08-18T15:07:32.781Z,97486.66
2022-08-18T15:10:15.694Z,97415.19
2022-08-18T15:12:56.297Z,97445.53
2022-08-18T15:15:42.281Z,97486.13
2022-08-18T15:18:24.245Z,97521.34
2022-08-18T15:21:19.671Z,97537.75
2022-08-18T15:24:27.139Z,97519.81
2022-08-18T15:27:06.077Z,97534.47
2022-08-18T15:29:36.896Z,97573.88
2022-08-18T15:32:15.171Z,97583.94
2022-08-18T15:34:47.023Z,97578.50
2022-08-18T15:37:24.602Z,97583.38
2022-08-18T15:40:05.582Z,97557.34
2022-08-18T15:42:33.189Z,97555.97
2022-08-18T15:45:11.493Z,97538.03
2022-08-18T15:47:47.166Z,97538.31
2022-08-18T15:50:25.634Z,97537.25
2022-08-18T15:53:01.204Z,97538.84
2022-08-18T15:55:35.715Z,97548.63
2022-08-18T15:58:11.234Z,97562.75
2022-08-18T16:00:46.223Z,97568.44
2022-08-18T16:03:21.139Z,97580.69
2022-08-18T16:05:53.180Z,97572.22
2022-08-18T16:08:28.137Z,97574.66
2022-08-18T16:11:01.146Z,97560.19
2022-08-18T16:13:41.124Z,97560.38
2022-08-18T16:16:29.192Z,97565.28
2022-08-18T16:19:09.194Z,97555.41
2022-08-18T16:21:39.875Z,97575.28
2022-08-18T16:24:16.657Z,97564.66
2022-08-18T16:26:53.219Z,97571.47
2022-08-18T16:29:20.025Z,97560.38
2022-08-18T16:31:54.141Z,97563.09
2022-08-18T16:34:20.710Z,97549.00
2022-08-18T16:36:55.220Z,97542.25
2022-08-18T16:39:21.862Z,97538.47
2022-08-18T16:41:55.542Z,97535.50
2022-08-18T16:44:22.209Z,97539.31
2022-08-18T16:46:58.142Z,97543.38
2022-08-18T16:49:24.869Z,97547.16
2022-08-18T16:51:58.150Z,97558.03
2022-08-18T16:54:31.192Z,97542.53
2022-08-18T16:56:58.511Z,97533.88
2022-08-18T16:59:50.150Z,97537.16
2022-08-18T17:02:35.425Z,97546.16
2022-08-18T17:05:09.196Z,97544.25
2022-08-18T17:07:36.232Z,97548.63
2022-08-18T17:10:11.135Z,97555.41
2022-08-18T17:12:58.167Z,97553.75
2022-08-18T17:15:31.203Z,97554.84
2022-08-18T17:17:57.877Z,97558.09
2022-08-18T17:20:32.148Z,97553.16
2022-08-18T17:22:59.861Z,97551.25
2022-08-18T17:25:34.160Z,97550.97
2022-08-18T17:28:02.158Z,97543.66
2022-08-18T17:30:43.243Z,97549.59
2022-08-18T17:33:19.218Z,97540.03
2022-08-18T17:35:47.551Z,97543.78
2022-08-18T17:38:27.147Z,97547.84
2022-08-18T17:40:55.346Z,97543.78
2022-08-18T17:43:30.211Z,97552.72
2022-08-18T17:46:01.237Z,97553.78
2022-08-18T17:48:38.131Z,97553.16
2022-08-18T17:51:26.865Z,97559.34
2022-08-18T17:54:00.171Z,97557.59
2022-08-18T17:56:35.506Z,97553.22
2022-08-18T17:59:46.356Z,97553.38
2022-08-18T18:02:28.518Z,97550.00
2022-08-18T18:05:04.129Z,97559.72
2022-08-18T18:07:32.889Z,97554.25
2022-08-18T18:10:11.140Z,97557.44
2022-08-18T18:12:59.176Z,97560.91
2022-08-18T18:15:37.136Z,97562.78
2022-08-18T18:18:18.664Z,97570.03
2022-08-18T18:20:52.152Z,97573.16
2022-08-18T18:23:24.028Z,97575.63
2022-08-18T18:25:57.130Z,97571.22
2022-08-18T18:28:34.513Z,97570.59
2022-08-18T18:31:24.145Z,97583.47
2022-08-18T18:34:02.192Z,97580.94
2022-08-18T18:36:43.129Z,97585.63
2022-08-18T18:39:21.144Z,97593.13
2022-08-18T18:41:50.818Z,97594.16
2022-08-18T18:44:34.174Z,97596.84
2022-08-18T18:47:10.972Z,97598.53
2022-08-18T18:50:00.212Z,97601.97
2022-08-18T18:52:53.325Z,97601.38
2022-08-18T18:55:23.780Z,97603.53
2022-08-18T18:58:09.155Z,97608.38
2022-08-18T19:01:04.439Z,97608.19
2022-08-18T19:03:42.128Z,97614.72
2022-08-18T19:06:35.213Z,97618.84
2022-08-18T19:09:13.149Z,97628.50
2022-08-18T19:11:48.046Z,97620.81
2022-08-18T19:14:33.131Z,97622.72
2022-08-18T19:17:09.142Z,97623.44
2022-08-18T19:19:41.188Z,97631.00
2022-08-18T19:22:18.902Z,97630.03
2022-08-18T19:24:59.572Z,97629.38
2022-08-18T19:27:49.843Z,97627.66
2022-08-18T19:30:24.128Z,97633.97
2022-08-18T19:32:55.629Z,97637.25
2022-08-18T19:35:35.605Z,97641.66
2022-08-18T19:38:07.570Z,97652.53
2022-08-18T19:40:51.161Z,97649.56
2022-08-18T19:43:23.767Z,97649.50
2022-08-18T19:46:03.576Z,97649.50
2022-08-18T19:49:02.303Z,97653.25
2022-08-18T19:51:33.461Z,97651.38
2022-08-18T19:54:11.202Z,97656.28
2022-08-18T19:56:43.278Z,97650.31
2022-08-18T19:59:23.152Z,97652.63
2022-08-18T20:01:55.354Z,97653.69
2022-08-18T20:04:44.153Z,97651.13
2022-08-18T20:07:19.895Z,97650.31
2022-08-18T20:10:15.128Z,97658.88
2022-08-18T20:12:48.386Z,97664.94
2022-08-18T20:15:30.129Z,97672.63
2022-08-18T20:18:06.392Z,97674.91
2022-08-18T20:20:47.162Z,97679.16
2022-08-18T20:23:32.753Z,97677.53
2022-08-18T20:26:06.124Z,97682.28
2022-08-18T20:28:34.858Z,97695.88
2022-08-18T20:31:19.136Z,97701.13
2022-08-18T20:34:17.215Z,97696.78
2022-08-18T20:36:45.102Z,97692.63
2022-08-18T20:39:39.196Z,97679.09
2022-08-18T20:42:07.448Z,97688.59
2022-08-18T20:44:44.149Z,97690.81
2022-08-18T20:47:19.733Z,97699.78
2022-08-18T20:50:02.185Z,97703.00
2022-08-18T20:52:39.689Z,97710.59
2022-08-18T20:55:26.119Z,97708.66
2022-08-18T20:57:55.613Z,97709.22
2022-08-18T21:00:29.102Z,97714.28
2022-08-18T21:02:56.914Z,97708.31
2022-08-18T21:05:35.130Z,97710.94
2022-08-18T21:08:04.838Z,97712.34
2022-08-18T21:10:39.125Z,97721.72
2022-08-18T21:13:12.252Z,97723.38
2022-08-18T21:15:52.108Z,97722.97
2022-08-18T21:18:20.002Z,97712.16
2022-08-18T21:20:55.105Z,97715.28
2022-08-18T21:23:30.303Z,97727.66
2022-08-18T21:26:12.103Z,97728.69
2022-08-18T21:28:40.139Z,97750.31
2022-08-18T21:31:42.786Z,97754.66
2022-08-18T21:34:05.964Z,97768.19
2022-08-18T21:36:39.122Z,97761.88
2022-08-18T21:39:22.113Z,97768.75
2022-08-18T21:41:57.104Z,97772.09
2022-08-18T21:44:41.792Z,97759.38
2022-08-18T21:47:21.131Z,97760.88
2022-08-18T21:50:24.138Z,97774.09
2022-08-18T21:52:53.799Z,97801.91
2022-08-18T21:55:27.120Z,97821.84
2022-08-18T21:58:05.700Z,97821.50
2022-08-18T22:00:39.134Z,97816.00
2022-08-18T22:03:12.086Z,97811.50
2022-08-18T22:05:57.784Z,97810.44
2022-08-18T22:08:34.140Z,97807.44
2022-08-18T22:12:01.380Z,97790.91
2022-08-18T22:14:30.392Z,97791.41
2022-08-18T22:17:27.133Z,97791.84
2022-08-18T22:20:01.152Z,97791.13
2022-08-18T22:22:55.194Z,97799.47
2022-08-18T22:25:29.109Z,97801.59
2022-08-18T22:27:59.132Z,97810.75
2022-08-18T22:30:32.105Z,97823.09
2022-08-18T22:32:59.764Z,97831.69
2022-08-18T22:35:34.110Z,97836.53
2022-08-18T22:38:00.923Z,97834.28
2022-08-18T22:40:34.099Z,97832.41
2022-08-18T22:43:00.729Z,97823.28
2022-08-18T22:45:28.485Z,97816.00
2022-08-18T22:48:02.141Z,97792.66
2022-08-18T22:50:35.092Z,97774.94
2022-08-18T22:53:09.101Z,97754.50
2022-08-18T22:55:35.699Z,97738.34
2022-08-18T22:58:09.094Z,97723.81
2022-08-18T23:00:37.515Z,97716.53
2022-08-18T23:03:13.122Z,97692.81
2022-08-18T23:05:39.700Z,97675.59
2022-08-18T23:08:13.319Z,97670.19
2022-08-18T23:10:46.097Z,97682.59
2022-08-18T23:13:33.212Z,97688.22
2022-08-18T23:16:30.515Z,97701.94
2022-08-18T23:18:53.096Z,97712.84
2022-08-18T23:21:35.485Z,97723.41
2022-08-18T23:24:12.112Z,97732.81
2022-08-18T23:26:45.115Z,97728.22
2022-08-18T23:29:12.517Z,97740.41
2022-08-18T23:31:46.265Z,97738.28
2022-08-18T23:34:15.920Z,97726.47
2022-08-18T23:36:49.208Z,97732.66
2022-08-18T23:39:15.793Z,97770.31
2022-08-18T23:41:49.088Z,97787.00
2022-08-18T23:44:16.147Z,97792.28
2022-08-18T23:46:50.102Z,97782.91
2022-08-18T23:49:16.751Z,97780.34
2022-08-18T23:51:51.076Z,97773.97
2022-08-18T23:54:19.070Z,97785.78
2022-08-18T23:56:52.083Z,97784.75
2022-08-18T23:59:19.972Z,97785.91
